createdAt,value
2024-01-06T00:00:25.272Z,100.97
2024-01-06T00:05:30.382Z,81.80
2024-01-06T00:10:35.427Z,82.85
2024-01-06T00:15:40.457Z,82.30
2024-01-06T00:20:45.513Z,76.90
2024-01-06T00:25:50.940Z,78.97
2024-01-06T00:30:58.080Z,101.53
2024-01-06T00:36:02.985Z,104.35
2024-01-06T00:41:07.751Z,105.20
2024-01-06T00:46:12.682Z,100.18
2024-01-06T00:51:17.505Z,106.28
2024-01-06T00:56:22.379Z,88.43
2024-01-06T01:01:27.470Z,101.15
2024-01-06T01:06:32.543Z,90.97
2024-01-06T01:11:37.707Z,96.55
2024-01-06T01:16:42.742Z,95.07
2024-01-06T01:21:47.984Z,85.93
2024-01-06T01:26:53.141Z,88.78
2024-01-06T01:31:58.038Z,89.25
2024-01-06T01:37:03.279Z,83.75
2024-01-06T01:42:08.264Z,86.93
2024-01-06T01:47:13.632Z,83.13
2024-01-06T01:52:19.022Z,66.03
2024-01-06T01:57:26.492Z,72.45
2024-01-06T02:02:31.931Z,61.20
2024-01-06T02:07:37.059Z,53.67
2024-01-06T02:12:41.868Z,57.10
2024-01-06T02:17:46.692Z,48.28
2024-01-06T02:22:51.995Z,51.65
2024-01-06T02:27:57.564Z,59.53
2024-01-06T02:33:02.500Z,61.57
2024-01-06T02:38:07.448Z,51.83
2024-01-06T02:43:12.762Z,59.17
2024-01-06T02:48:18.539Z,50.30
2024-01-06T02:53:23.429Z,54.67
2024-01-06T02:58:29.520Z,54.35
2024-01-06T03:03:34.577Z,48.55
2024-01-06T03:08:39.953Z,52.57
2024-01-06T03:13:45.058Z,51.20
2024-01-06T03:18:51.293Z,47.28
2024-01-06T03:29:04.785Z,51.42
2024-01-06T03:34:11.009Z,46.45
2024-01-06T03:39:17.758Z,51.22
2024-01-06T03:44:22.626Z,52.13
2024-01-06T03:49:28.162Z,44.60
2024-01-06T03:54:35.134Z,46.43
2024-01-06T03:59:41.647Z,35.83
2024-01-06T04:10:21.121Z,46.47
2024-01-06T04:15:28.244Z,37.20
2024-01-06T04:20:37.583Z,39.55
2024-01-06T04:25:43.135Z,45.58
2024-01-06T04:30:48.291Z,58.85
2024-01-06T04:35:53.195Z,52.75
2024-01-06T04:40:58.285Z,49.33
2024-01-06T04:46:03.171Z,47.67
2024-01-06T04:51:12.344Z,39.35
2024-01-06T04:56:17.908Z,41.83
2024-01-06T05:01:23.476Z,41.13
2024-01-06T05:06:28.669Z,39.10
2024-01-06T05:11:33.595Z,47.20
2024-01-06T05:16:38.341Z,45.53
2024-01-06T05:21:43.482Z,42.28
2024-01-06T05:26:48.600Z,45.08
2024-01-06T05:31:53.534Z,39.55
2024-01-06T05:36:58.261Z,41.30
2024-01-06T05:42:03.009Z,27.45
2024-01-06T05:47:08.884Z,36.65
2024-01-06T05:52:14.095Z,36.20
2024-01-06T05:57:20.102Z,38.90
2024-01-06T06:02:25.000Z,35.35
2024-01-06T06:07:29.757Z,34.70
2024-01-06T06:12:34.615Z,29.85
2024-01-06T06:17:39.927Z,26.92
2024-01-06T06:22:44.806Z,24.57
2024-01-06T06:27:49.919Z,31.40
2024-01-06T06:32:55.092Z,25.13
2024-01-06T06:38:00.360Z,28.50
2024-01-06T06:43:05.452Z,30.42
2024-01-06T06:48:10.701Z,23.50
2024-01-06T06:53:16.090Z,28.77
2024-01-06T06:58:21.064Z,25.85
2024-01-06T07:03:26.163Z,28.85
2024-01-06T07:08:31.188Z,29.77
2024-01-06T07:13:36.234Z,27.08
2024-01-06T07:18:41.506Z,27.60
2024-01-06T07:23:47.260Z,28.97
2024-01-06T07:28:52.314Z,25.90
2024-01-06T07:33:57.816Z,31.48
2024-01-06T07:39:02.953Z,28.17
2024-01-06T07:44:07.926Z,33.65
2024-01-06T07:49:13.029Z,24.05
2024-01-06T07:54:18.260Z,27.03
2024-01-06T07:59:23.495Z,27.23
2024-01-06T08:04:29.139Z,31.63
2024-01-06T08:09:34.163Z,30.77
2024-01-06T08:14:39.082Z,34.20
2024-01-06T08:19:44.236Z,30.80
2024-01-06T08:24:49.499Z,29.87
2024-01-06T08:29:54.684Z,28.00
2024-01-06T08:34:59.735Z,28.30
2024-01-06T08:40:06.789Z,25.13
2024-01-06T08:45:12.166Z,29.92
2024-01-06T08:50:17.072Z,28.38
2024-01-06T08:55:21.988Z,26.08
2024-01-06T09:00:26.854Z,25.40
2024-01-06T09:05:32.151Z,19.50
2024-01-06T09:10:37.280Z,16.60
2024-01-06T09:15:42.446Z,26.10
2024-01-06T09:20:50.004Z,25.02
2024-01-06T09:25:55.252Z,20.70
2024-01-06T09:31:00.273Z,19.65
2024-01-06T09:36:05.737Z,14.20
2024-01-06T09:41:10.754Z,25.17
2024-01-06T09:46:31.845Z,25.52
2024-01-06T09:51:39.908Z,28.27
2024-01-06T09:56:49.516Z,29.65
2024-01-06T10:01:55.358Z,30.85
2024-01-06T10:07:00.805Z,28.50
2024-01-06T10:12:05.813Z,30.40
2024-01-06T10:17:10.799Z,33.72
2024-01-06T10:22:15.641Z,33.05
2024-01-06T10:27:24.104Z,34.83
2024-01-06T10:32:31.086Z,35.63
2024-01-06T10:37:35.944Z,43.15
2024-01-06T10:42:44.712Z,37.50
2024-01-06T10:47:51.601Z,36.67
2024-01-06T10:52:57.744Z,38.47
2024-01-06T10:58:03.533Z,38.78
2024-01-06T11:03:08.845Z,38.20
2024-01-06T11:08:14.384Z,35.83
2024-01-06T11:13:25.994Z,30.27
2024-01-06T11:18:42.929Z,36.22
2024-01-06T11:23:48.376Z,34.30
2024-01-06T11:28:55.175Z,35.13
2024-01-06T11:34:14.427Z,32.17
2024-01-06T11:39:43.639Z,40.20
2024-01-06T11:44:53.181Z,18.10
2024-01-06T11:49:58.761Z,35.28
2024-01-06T11:55:04.309Z,47.40
2024-01-06T12:00:09.960Z,24.80
2024-01-06T12:05:20.088Z,40.67
2024-01-06T12:10:26.405Z,41.95
2024-01-06T12:15:33.261Z,38.10
2024-01-06T12:20:38.400Z,38.40
2024-01-06T12:25:46.774Z,37.20
2024-01-06T12:30:51.718Z,37.13
2024-01-06T12:35:57.055Z,36.13
2024-01-06T12:41:03.463Z,35.93
2024-01-06T12:46:08.606Z,32.80
2024-01-06T12:51:13.764Z,35.85
2024-01-06T12:56:18.835Z,41.72
2024-01-06T13:01:23.994Z,38.22
2024-01-06T13:06:29.291Z,42.83
2024-01-06T13:11:35.018Z,51.88
2024-01-06T13:16:39.898Z,50.37
2024-01-06T13:21:44.951Z,53.58
2024-01-06T13:26:50.340Z,51.78
2024-01-06T13:31:55.679Z,53.10
2024-01-06T13:37:01.020Z,45.83
2024-01-06T13:42:07.072Z,48.88
2024-01-06T13:47:11.804Z,37.88
2024-01-06T13:52:16.684Z,42.47
2024-01-06T13:57:22.691Z,43.42
2024-01-06T14:02:27.803Z,43.55
2024-01-06T14:07:32.858Z,49.08
2024-01-06T14:12:37.740Z,45.07
2024-01-06T14:17:43.132Z,43.72
2024-01-06T14:22:51.759Z,29.60
2024-01-06T14:27:57.157Z,45.63
2024-01-06T14:33:02.159Z,37.23
2024-01-06T14:38:08.038Z,47.13
2024-01-06T14:43:12.863Z,27.10
2024-01-06T14:48:17.906Z,46.55
2024-01-06T14:53:22.868Z,40.33
2024-01-06T14:58:27.702Z,41.90
2024-01-06T15:03:33.580Z,40.88
2024-01-06T15:08:38.553Z,45.08
2024-01-06T15:13:43.516Z,42.83
2024-01-06T15:18:49.543Z,44.17
2024-01-06T15:23:55.814Z,46.28
2024-01-06T15:29:02.636Z,48.65
2024-01-06T15:34:07.638Z,44.88
2024-01-06T15:39:12.689Z,47.70
2024-01-06T15:44:17.600Z,49.08
2024-01-06T15:49:22.541Z,47.95
2024-01-06T15:54:27.593Z,58.80
2024-01-06T15:59:32.471Z,55.72
2024-01-06T16:04:37.177Z,54.10
2024-01-06T16:09:42.370Z,67.95
2024-01-06T16:14:47.350Z,59.67
2024-01-06T16:19:52.171Z,60.60
2024-01-06T16:24:56.961Z,63.25
2024-01-06T16:30:02.816Z,65.75
2024-01-06T16:35:08.797Z,59.47
2024-01-06T16:45:18.541Z,55.83
2024-01-06T16:50:23.875Z,47.15
2024-01-06T16:55:28.995Z,41.93
2024-01-06T17:00:34.313Z,44.17
2024-01-06T17:05:41.286Z,42.65
2024-01-06T17:10:46.975Z,43.17
2024-01-06T17:15:53.056Z,36.87
2024-01-06T17:20:58.083Z,42.00
2024-01-06T17:26:03.006Z,39.85
2024-01-06T17:31:07.812Z,32.15
2024-01-06T17:36:13.153Z,36.10
2024-01-06T17:41:18.182Z,34.07
2024-01-06T17:46:23.627Z,33.20
2024-01-06T17:51:30.150Z,29.90
2024-01-06T17:56:35.264Z,19.48
2024-01-06T18:01:40.120Z,25.00
2024-01-06T18:06:45.831Z,26.65
2024-01-06T18:11:51.335Z,28.13
2024-01-06T18:16:56.178Z,29.90
2024-01-06T18:22:01.156Z,25.05
2024-01-06T18:27:07.780Z,31.02
2024-01-06T18:32:15.469Z,26.92
2024-01-06T18:37:21.941Z,24.00
2024-01-06T18:42:27.161Z,29.83
2024-01-06T18:47:32.411Z,24.63
2024-01-06T18:52:38.108Z,25.85
2024-01-06T18:57:43.104Z,27.23
2024-01-06T19:02:52.636Z,27.52
2024-01-06T19:07:57.649Z,27.30
2024-01-06T19:13:02.613Z,24.73
2024-01-06T19:18:08.598Z,24.25
2024-01-06T19:23:15.181Z,24.27
2024-01-06T19:28:20.323Z,21.10
2024-01-06T19:33:26.331Z,24.48
2024-01-06T19:38:31.474Z,21.42
2024-01-06T19:43:36.306Z,23.38
2024-01-06T19:48:41.239Z,29.23
2024-01-06T19:53:46.544Z,20.23
2024-01-06T19:58:51.490Z,25.43
2024-01-06T20:03:56.750Z,16.27
2024-01-06T20:09:01.843Z,19.40
2024-01-06T20:14:06.959Z,13.73
2024-01-06T20:19:11.995Z,15.45
2024-01-06T20:24:17.080Z,29.08
2024-01-06T20:29:22.079Z,25.40
2024-01-06T20:34:30.142Z,27.75
2024-01-06T20:39:35.351Z,28.75
2024-01-06T20:44:40.219Z,26.75
2024-01-06T20:49:45.079Z,27.17
2024-01-06T20:54:50.140Z,26.23
2024-01-06T20:59:54.960Z,27.08
2024-01-06T21:05:06.318Z,32.80
2024-01-06T21:10:16.253Z,29.73
2024-01-06T21:15:23.179Z,29.98
2024-01-06T21:20:28.247Z,19.48
2024-01-06T21:25:33.098Z,27.80
2024-01-06T21:30:37.960Z,25.15
2024-01-06T21:35:42.753Z,22.42
2024-01-06T21:40:48.135Z,25.00
2024-01-06T21:45:54.124Z,26.85
2024-01-06T21:50:59.840Z,26.25
2024-01-06T21:56:05.322Z,24.73
2024-01-06T22:01:10.757Z,29.60
2024-01-06T22:06:15.675Z,28.13
2024-01-06T22:11:20.710Z,25.33
2024-01-06T22:16:26.021Z,26.30
2024-01-06T22:21:31.564Z,24.27
2024-01-06T22:26:38.195Z,27.87
2024-01-06T22:31:46.671Z,26.42
2024-01-06T22:36:51.819Z,27.60
2024-01-06T22:41:56.729Z,27.20
2024-01-06T22:47:02.094Z,27.02
2024-01-06T22:52:07.188Z,32.47
2024-01-06T22:57:12.438Z,34.30
2024-01-06T23:02:17.806Z,27.75
2024-01-06T23:07:22.866Z,31.13
2024-01-06T23:12:28.543Z,28.50
2024-01-06T23:17:33.389Z,26.70
2024-01-06T23:22:38.530Z,33.38
2024-01-06T23:27:43.818Z,31.38
2024-01-06T23:32:48.985Z,36.43
2024-01-06T23:37:55.945Z,31.53
2024-01-06T23:43:01.120Z,34.88
2024-01-06T23:48:06.459Z,44.28
2024-01-06T23:53:13.165Z,38.23
2024-01-06T23:58:18.163Z,38.00
